Dubuque, Iowa
Current Conditions -  °F | °C
As of 8:53 AM on Friday 24 Oct 2014 (Local Time) from KDBQ Reporting Station
Moderate Fog Moderate Fog  
Wind Chill: 51°   Ceiling: 100
Heat Index: 51°   Visibility: 0mi
Dew Point: 51°   Wind: 9mph
Humidity: 100%   Direction: 160°SSE
Pressure: 30.03"   Gusts: NA
Location:  42.5°N, 90.66°W
Report Text: KDBQ 241353Z 16008KT M1/4SM R36/0700V1000FT FG VV001 11/11 A3003 RMK AO2 SLP172 T01060106
Loading
Personal Weather Stations






























Interactive Weather Map New forecast layout! Learn more

10-Day Weather Forecast

Advertisements
Track Severe Weather on mobile